»·PEaware :: N221XG KYKM-KBFI

N221XG :: KYKM-KBFI

FLIGHT INFORMATION

Flight Status: Arrived
Operator: Privately registered:
United States
More flights under this callsign
Pilot: Ryan L. (9775)
Aircraft: BEECH AIRCRAFT SUPER KING AIR 350
(B350)
More flights by this aircraft type
Origin: KYKM Yakima Air Term/Mcallister
United States
Destination: KBFI Boeing Field/King Co Intl
United States
More flights between these airports :: More routes between these airports
Route: WENAS7 TITON V4 SEA
File this flight plan on PilotEdge
Remarks:
Altitude:
(Current/Filed)
16,000ft
Speed:
(Current/Filed)
280kts
Departed: 07-Sep-19 09:39 AM
Arrived: 07-Sep-19 10:16 AM
Distance/Time
Traveled:
92nm/0:37
Distance/Time
To Go:
Arrived

Flight Plot

Page will automatically refresh every two minutes.

Flight plan parsing failed; only flown route is shown


Map Options




Map Legend


Flown Route
Filed Route
Departure Airport
Arrival Airport
Navaid (VOR, NDB)
Fix

Horizontal Profiles

Position Reports

Time Latitude Longitude Heading Altitude Ground
Speed
07-Sep-19 09:25 46.572375 -120.548179 91 1104ft 0kts
07-Sep-19 09:26 46.572375 -120.548179 91 1104ft 0kts
07-Sep-19 09:27 46.572375 -120.548179 91 1104ft 0kts
07-Sep-19 09:28 46.572375 -120.548179 91 1104ft 0kts
07-Sep-19 09:29 46.572313 -120.547856 136 1104ft 2kts
07-Sep-19 09:30 46.572130 -120.547759 177 1104ft 1kts
07-Sep-19 09:31 46.571149 -120.547710 176 1104ft 2kts
07-Sep-19 09:32 46.570237 -120.545638 109 1104ft 12kts
07-Sep-19 09:33 46.568920 -120.540364 109 1104ft 14kts
07-Sep-19 09:34 46.567641 -120.535260 109 1104ft 14kts
07-Sep-19 09:35 46.566462 -120.531510 168 1104ft 0kts
07-Sep-19 09:36 46.566462 -120.531510 168 1104ft 0kts
07-Sep-19 09:37 46.565799 -120.532614 289 1104ft 15kts
07-Sep-19 09:38 46.575818 -120.566489 306 1622ft 125kts
07-Sep-19 09:39 46.580574 -120.620888 271 3097ft 145kts
07-Sep-19 09:40 46.593170 -120.673445 353 4599ft 164kts
07-Sep-19 09:41 46.636139 -120.652720 26 6304ft 171kts
07-Sep-19 09:42 46.679762 -120.660034 300 7709ft 192kts
07-Sep-19 09:43 46.708244 -120.728506 301 9295ft 199kts
07-Sep-19 09:44 46.739109 -120.796054 301 10888ft 201kts
07-Sep-19 09:45 46.771112 -120.864043 301 12492ft 204kts
07-Sep-19 09:46 46.803394 -120.932183 301 14080ft 206kts
07-Sep-19 09:47 46.836459 -121.001984 300 15694ft 210kts
07-Sep-19 09:48 46.873201 -121.079703 301 16022ft 261kts
07-Sep-19 09:49 46.917449 -121.173380 301 16007ft 292kts
07-Sep-19 09:50 46.964426 -121.273227 302 16002ft 299kts
07-Sep-19 09:51 47.013729 -121.372650 306 16003ft 302kts
07-Sep-19 09:52 47.061112 -121.473400 301 15567ft 299kts
07-Sep-19 09:53 47.106474 -121.572850 302 14422ft 295kts
07-Sep-19 09:54 47.150392 -121.669175 299 13315ft 290kts
07-Sep-19 09:55 47.194111 -121.767315 300 12272ft 285kts
07-Sep-19 09:56 47.237544 -121.864159 301 10884ft 280kts
07-Sep-19 09:57 47.280139 -121.959421 302 9494ft 274kts
07-Sep-19 09:58 47.321358 -122.051865 302 7825ft 266kts
07-Sep-19 09:59 47.361290 -122.141680 303 6060ft 257kts
07-Sep-19 10:00 47.399588 -122.228058 303 4351ft 249kts
07-Sep-19 10:01 47.440723 -122.299927 315 4003ft 214kts
07-Sep-19 10:02 47.484790 -122.364721 315 4004ft 228kts
07-Sep-19 10:03 47.528257 -122.425902 326 2972ft 213kts
07-Sep-19 10:04 47.575574 -122.473328 326 2168ft 180kts
07-Sep-19 10:05 47.614328 -122.512003 326 2199ft 166kts
07-Sep-19 10:06 47.653004 -122.550605 326 2200ft 167kts
07-Sep-19 10:07 47.692041 -122.588810 328 2199ft 167kts
07-Sep-19 10:08 47.718444 -122.549576 97 2181ft 170kts
07-Sep-19 10:09 47.694107 -122.490321 123 2198ft 168kts
07-Sep-19 10:10 47.668272 -122.432632 123 2199ft 167kts
07-Sep-19 10:11 47.632950 -122.389697 150 2099ft 170kts
07-Sep-19 10:12 47.597525 -122.359652 150 1270ft 121kts
07-Sep-19 10:13 47.569816 -122.335787 151 691ft 117kts
07-Sep-19 10:14 47.541596 -122.312261 151 73ft 116kts
07-Sep-19 10:15 47.527379 -122.300239 150 25ft 18kts
07-Sep-19 10:16 47.527337 -122.298743 58 25ft 0kts
07-Sep-19 10:17 47.527073 -122.298348 150 25ft 7kts
07-Sep-19 10:18 47.525333 -122.296716 133 25ft 8kts
07-Sep-19 10:19 47.524967 -122.295766 82 25ft 0kts
07-Sep-19 10:20 47.524967 -122.295767 82 25ft 0kts
07-Sep-19 10:21 47.524967 -122.295767 82 25ft 0kts
07-Sep-19 10:22 47.524967 -122.295767 82 25ft 0kts

Navigation Log

Ident Type
Flight plan parsing failed, navigation log unavailable